sensor_id;sensor_type;location;lat;lon;timestamp;P1;durP1;ratioP1;P2;durP2;ratioP2
12129;SDS011;6128;59.340;18.040;2024-02-23T00:02:14;13.60;;;10.37;;
12129;SDS011;6128;59.340;18.040;2024-02-23T00:04:41;12.97;;;9.83;;
12129;SDS011;6128;59.340;18.040;2024-02-23T00:07:08;13.93;;;11.57;;
12129;SDS011;6128;59.340;18.040;2024-02-23T00:09:36;12.40;;;11.10;;
12129;SDS011;6128;59.340;18.040;2024-02-23T00:12:04;12.60;;;10.23;;
12129;SDS011;6128;59.340;18.040;2024-02-23T00:14:31;13.93;;;11.37;;
12129;SDS011;6128;59.340;18.040;2024-02-23T00:17:01;13.13;;;11.60;;
12129;SDS011;6128;59.340;18.040;2024-02-23T00:19:29;14.67;;;11.87;;
12129;SDS011;6128;59.340;18.040;2024-02-23T00:21:56;14.80;;;11.43;;
12129;SDS011;6128;59.340;18.040;2024-02-23T00:24:24;15.77;;;11.80;;
12129;SDS011;6128;59.340;18.040;2024-02-23T00:26:53;16.17;;;12.03;;
12129;SDS011;6128;59.340;18.040;2024-02-23T00:29:20;16.00;;;12.30;;
12129;SDS011;6128;59.340;18.040;2024-02-23T00:31:47;13.63;;;12.20;;
12129;SDS011;6128;59.340;18.040;2024-02-23T00:34:14;17.87;;;12.90;;
12129;SDS011;6128;59.340;18.040;2024-02-23T00:36:42;15.20;;;12.97;;
12129;SDS011;6128;59.340;18.040;2024-02-23T00:39:10;20.60;;;13.03;;
12129;SDS011;6128;59.340;18.040;2024-02-23T00:41:37;16.97;;;13.00;;
12129;SDS011;6128;59.340;18.040;2024-02-23T00:44:05;14.50;;;12.90;;
12129;SDS011;6128;59.340;18.040;2024-02-23T00:46:32;17.70;;;11.77;;
12129;SDS011;6128;59.340;18.040;2024-02-23T00:49:00;14.77;;;12.03;;
12129;SDS011;6128;59.340;18.040;2024-02-23T00:51:27;15.80;;;11.97;;
12129;SDS011;6128;59.340;18.040;2024-02-23T00:53:54;18.43;;;12.73;;
12129;SDS011;6128;59.340;18.040;2024-02-23T00:56:21;17.53;;;12.70;;
12129;SDS011;6128;59.340;18.040;2024-02-23T00:58:51;14.90;;;13.13;;
12129;SDS011;6128;59.340;18.040;2024-02-23T01:01:20;14.23;;;11.67;;
12129;SDS011;6128;59.340;18.040;2024-02-23T01:03:47;16.53;;;13.57;;
12129;SDS011;6128;59.340;18.040;2024-02-23T01:06:16;17.87;;;13.03;;
12129;SDS011;6128;59.340;18.040;2024-02-23T01:08:43;19.43;;;13.40;;
12129;SDS011;6128;59.340;18.040;2024-02-23T01:11:11;18.70;;;14.47;;
12129;SDS011;6128;59.340;18.040;2024-02-23T01:13:38;20.87;;;14.73;;
12129;SDS011;6128;59.340;18.040;2024-02-23T01:16:05;18.17;;;12.20;;
12129;SDS011;6128;59.340;18.040;2024-02-23T01:18:35;16.27;;;13.20;;
12129;SDS011;6128;59.340;18.040;2024-02-23T01:21:02;20.93;;;14.77;;
12129;SDS011;6128;59.340;18.040;2024-02-23T01:23:30;15.80;;;13.07;;
12129;SDS011;6128;59.340;18.040;2024-02-23T01:25:57;15.03;;;12.80;;
12129;SDS011;6128;59.340;18.040;2024-02-23T01:28:25;14.10;;;11.73;;
12129;SDS011;6128;59.340;18.040;2024-02-23T01:30:52;12.57;;;11.20;;
12129;SDS011;6128;59.340;18.040;2024-02-23T01:33:19;11.43;;;10.27;;
12129;SDS011;6128;59.340;18.040;2024-02-23T01:35:50;12.80;;;9.33;;
12129;SDS011;6128;59.340;18.040;2024-02-23T01:38:18;11.43;;;10.17;;
12129;SDS011;6128;59.340;18.040;2024-02-23T01:40:46;16.13;;;11.07;;
12129;SDS011;6128;59.340;18.040;2024-02-23T01:43:13;13.17;;;11.30;;
12129;SDS011;6128;59.340;18.040;2024-02-23T01:45:41;13.03;;;10.83;;
12129;SDS011;6128;59.340;18.040;2024-02-23T01:48:12;13.30;;;10.83;;
12129;SDS011;6128;59.340;18.040;2024-02-23T01:50:40;13.40;;;9.77;;
12129;SDS011;6128;59.340;18.040;2024-02-23T01:53:11;12.50;;;11.10;;
12129;SDS011;6128;59.340;18.040;2024-02-23T01:55:41;11.30;;;10.03;;
12129;SDS011;6128;59.340;18.040;2024-02-23T01:58:12;12.03;;;10.73;;
12129;SDS011;6128;59.340;18.040;2024-02-23T02:00:43;12.47;;;10.53;;
12129;SDS011;6128;59.340;18.040;2024-02-23T02:03:10;12.67;;;11.43;;
12129;SDS011;6128;59.340;18.040;2024-02-23T02:05:37;14.03;;;11.97;;
12129;SDS011;6128;59.340;18.040;2024-02-23T02:08:04;13.90;;;12.50;;
12129;SDS011;6128;59.340;18.040;2024-02-23T02:10:35;17.00;;;13.67;;
12129;SDS011;6128;59.340;18.040;2024-02-23T02:13:04;13.33;;;11.90;;
12129;SDS011;6128;59.340;18.040;2024-02-23T02:15:32;12.40;;;10.63;;
12129;SDS011;6128;59.340;18.040;2024-02-23T02:18:02;14.90;;;12.13;;
12129;SDS011;6128;59.340;18.040;2024-02-23T02:20:30;13.43;;;11.40;;
12129;SDS011;6128;59.340;18.040;2024-02-23T02:22:59;12.97;;;11.57;;
12129;SDS011;6128;59.340;18.040;2024-02-23T02:25:26;14.13;;;12.53;;
12129;SDS011;6128;59.340;18.040;2024-02-23T02:27:54;14.27;;;12.77;;
12129;SDS011;6128;59.340;18.040;2024-02-23T02:30:21;13.03;;;11.67;;
12129;SDS011;6128;59.340;18.040;2024-02-23T02:32:49;13.60;;;10.43;;
12129;SDS011;6128;59.340;18.040;2024-02-23T02:35:16;14.27;;;9.20;;
12129;SDS011;6128;59.340;18.040;2024-02-23T02:37:46;14.53;;;11.33;;
12129;SDS011;6128;59.340;18.040;2024-02-23T02:40:14;13.47;;;10.07;;
12129;SDS011;6128;59.340;18.040;2024-02-23T02:42:44;12.90;;;11.60;;
12129;SDS011;6128;59.340;18.040;2024-02-23T02:45:13;12.33;;;10.37;;
12129;SDS011;6128;59.340;18.040;2024-02-23T02:47:40;15.97;;;9.47;;
12129;SDS011;6128;59.340;18.040;2024-02-23T02:50:07;10.70;;;9.53;;
12129;SDS011;6128;59.340;18.040;2024-02-23T02:52:35;12.73;;;10.10;;
12129;SDS011;6128;59.340;18.040;2024-02-23T02:55:03;11.77;;;8.20;;
12129;SDS011;6128;59.340;18.040;2024-02-23T02:57:32;11.70;;;10.47;;
12129;SDS011;6128;59.340;18.040;2024-02-23T03:00:01;13.13;;;11.60;;
12129;SDS011;6128;59.340;18.040;2024-02-23T03:02:31;12.77;;;11.47;;
12129;SDS011;6128;59.340;18.040;2024-02-23T03:04:58;13.53;;;11.47;;
12129;SDS011;6128;59.340;18.040;2024-02-23T03:07:25;12.47;;;11.00;;
12129;SDS011;6128;59.340;18.040;2024-02-23T03:09:53;14.10;;;12.13;;
12129;SDS011;6128;59.340;18.040;2024-02-23T03:12:20;13.73;;;11.80;;
12129;SDS011;6128;59.340;18.040;2024-02-23T03:14:47;11.13;;;10.03;;
12129;SDS011;6128;59.340;18.040;2024-02-23T03:17:15;10.80;;;9.70;;
12129;SDS011;6128;59.340;18.040;2024-02-23T03:19:43;9.37;;;8.47;;
12129;SDS011;6128;59.340;18.040;2024-02-23T03:22:10;9.73;;;8.73;;
12129;SDS011;6128;59.340;18.040;2024-02-23T03:24:39;12.77;;;9.60;;
12129;SDS011;6128;59.340;18.040;2024-02-23T03:27:13;10.60;;;9.43;;
12129;SDS011;6128;59.340;18.040;2024-02-23T03:29:40;10.00;;;8.70;;
12129;SDS011;6128;59.340;18.040;2024-02-23T03:32:07;9.90;;;8.90;;
12129;SDS011;6128;59.340;18.040;2024-02-23T03:34:35;7.83;;;7.03;;
12129;SDS011;6128;59.340;18.040;2024-02-23T03:37:03;8.07;;;7.27;;
12129;SDS011;6128;59.340;18.040;2024-02-23T03:39:30;9.73;;;8.30;;
12129;SDS011;6128;59.340;18.040;2024-02-23T03:41:58;9.03;;;8.23;;
12129;SDS011;6128;59.340;18.040;2024-02-23T03:44:26;8.53;;;7.73;;
12129;SDS011;6128;59.340;18.040;2024-02-23T03:46:53;7.00;;;6.30;;
12129;SDS011;6128;59.340;18.040;2024-02-23T03:49:20;10.37;;;9.27;;
12129;SDS011;6128;59.340;18.040;2024-02-23T03:51:48;9.87;;;8.90;;
12129;SDS011;6128;59.340;18.040;2024-02-23T03:54:16;9.80;;;8.80;;
12129;SDS011;6128;59.340;18.040;2024-02-23T03:56:43;9.13;;;8.00;;
12129;SDS011;6128;59.340;18.040;2024-02-23T03:59:10;13.03;;;10.90;;
12129;SDS011;6128;59.340;18.040;2024-02-23T04:01:38;14.50;;;11.13;;
12129;SDS011;6128;59.340;18.040;2024-02-23T04:04:05;11.83;;;10.60;;
12129;SDS011;6128;59.340;18.040;2024-02-23T04:06:33;10.57;;;8.80;;
12129;SDS011;6128;59.340;18.040;2024-02-23T04:08:59;15.23;;;12.13;;
12129;SDS011;6128;59.340;18.040;2024-02-23T04:11:30;13.80;;;11.80;;
12129;SDS011;6128;59.340;18.040;2024-02-23T04:14:02;16.33;;;12.00;;
12129;SDS011;6128;59.340;18.040;2024-02-23T04:16:30;12.00;;;10.77;;
12129;SDS011;6128;59.340;18.040;2024-02-23T04:18:57;14.50;;;12.07;;
12129;SDS011;6128;59.340;18.040;2024-02-23T04:21:25;14.37;;;11.33;;
12129;SDS011;6128;59.340;18.040;2024-02-23T04:23:53;11.10;;;9.80;;
12129;SDS011;6128;59.340;18.040;2024-02-23T04:26:20;10.60;;;9.50;;
12129;SDS011;6128;59.340;18.040;2024-02-23T04:28:48;12.70;;;10.37;;
12129;SDS011;6128;59.340;18.040;2024-02-23T04:31:16;13.40;;;10.47;;
12129;SDS011;6128;59.340;18.040;2024-02-23T04:33:43;8.23;;;7.43;;
12129;SDS011;6128;59.340;18.040;2024-02-23T04:36:10;12.00;;;10.50;;
12129;SDS011;6128;59.340;18.040;2024-02-23T04:38:37;13.67;;;10.27;;
12129;SDS011;6128;59.340;18.040;2024-02-23T04:41:04;9.63;;;8.37;;
12129;SDS011;6128;59.340;18.040;2024-02-23T04:43:33;12.23;;;9.87;;
12129;SDS011;6128;59.340;18.040;2024-02-23T04:46:03;9.20;;;8.27;;
12129;SDS011;6128;59.340;18.040;2024-02-23T04:48:30;12.03;;;8.90;;
12129;SDS011;6128;59.340;18.040;2024-02-23T04:50:58;10.07;;;8.77;;
12129;SDS011;6128;59.340;18.040;2024-02-23T04:53:25;7.40;;;6.67;;
12129;SDS011;6128;59.340;18.040;2024-02-23T04:55:55;8.93;;;7.17;;
12129;SDS011;6128;59.340;18.040;2024-02-23T04:58:22;7.87;;;7.10;;
12129;SDS011;6128;59.340;18.040;2024-02-23T05:00:49;7.70;;;6.90;;
12129;SDS011;6128;59.340;18.040;2024-02-23T05:03:17;6.53;;;5.90;;
12129;SDS011;6128;59.340;18.040;2024-02-23T05:05:44;6.90;;;6.20;;
12129;SDS011;6128;59.340;18.040;2024-02-23T05:08:12;5.47;;;4.97;;
12129;SDS011;6128;59.340;18.040;2024-02-23T05:10:39;7.33;;;6.03;;
12129;SDS011;6128;59.340;18.040;2024-02-23T05:13:06;6.47;;;5.87;;
12129;SDS011;6128;59.340;18.040;2024-02-23T05:15:33;6.37;;;5.87;;
12129;SDS011;6128;59.340;18.040;2024-02-23T05:18:01;6.63;;;5.93;;
12129;SDS011;6128;59.340;18.040;2024-02-23T05:20:30;7.47;;;6.47;;
12129;SDS011;6128;59.340;18.040;2024-02-23T05:22:57;8.80;;;7.77;;
12129;SDS011;6128;59.340;18.040;2024-02-23T05:25:24;9.30;;;7.53;;
12129;SDS011;6128;59.340;18.040;2024-02-23T05:27:52;9.43;;;7.67;;
12129;SDS011;6128;59.340;18.040;2024-02-23T05:30:19;8.70;;;7.83;;
12129;SDS011;6128;59.340;18.040;2024-02-23T05:32:46;9.13;;;8.27;;
12129;SDS011;6128;59.340;18.040;2024-02-23T05:35:14;11.40;;;7.73;;
12129;SDS011;6128;59.340;18.040;2024-02-23T05:37:42;11.43;;;7.87;;
12129;SDS011;6128;59.340;18.040;2024-02-23T05:40:12;13.43;;;7.83;;
12129;SDS011;6128;59.340;18.040;2024-02-23T05:42:39;12.17;;;8.27;;
12129;SDS011;6128;59.340;18.040;2024-02-23T05:45:06;10.57;;;7.70;;
12129;SDS011;6128;59.340;18.040;2024-02-23T05:47:35;12.83;;;8.47;;
12129;SDS011;6128;59.340;18.040;2024-02-23T05:50:02;11.47;;;7.27;;
12129;SDS011;6128;59.340;18.040;2024-02-23T05:52:30;14.97;;;9.90;;
12129;SDS011;6128;59.340;18.040;2024-02-23T05:54:59;14.00;;;8.43;;
12129;SDS011;6128;59.340;18.040;2024-02-23T05:57:26;12.07;;;8.43;;
12129;SDS011;6128;59.340;18.040;2024-02-23T05:59:53;9.93;;;7.20;;
12129;SDS011;6128;59.340;18.040;2024-02-23T06:02:21;11.83;;;9.37;;
12129;SDS011;6128;59.340;18.040;2024-02-23T06:04:48;11.30;;;9.13;;
12129;SDS011;6128;59.340;18.040;2024-02-23T06:07:16;13.67;;;9.33;;
12129;SDS011;6128;59.340;18.040;2024-02-23T06:09:45;9.63;;;7.87;;
12129;SDS011;6128;59.340;18.040;2024-02-23T06:12:14;12.37;;;8.97;;
12129;SDS011;6128;59.340;18.040;2024-02-23T06:14:41;11.90;;;9.00;;
12129;SDS011;6128;59.340;18.040;2024-02-23T06:17:09;13.47;;;10.67;;
12129;SDS011;6128;59.340;18.040;2024-02-23T06:19:36;10.03;;;8.83;;
12129;SDS011;6128;59.340;18.040;2024-02-23T06:22:03;12.77;;;8.60;;
12129;SDS011;6128;59.340;18.040;2024-02-23T06:24:30;9.23;;;7.07;;
12129;SDS011;6128;59.340;18.040;2024-02-23T06:26:57;10.47;;;8.50;;
12129;SDS011;6128;59.340;18.040;2024-02-23T06:29:26;8.33;;;6.87;;
12129;SDS011;6128;59.340;18.040;2024-02-23T06:31:53;13.47;;;8.27;;
12129;SDS011;6128;59.340;18.040;2024-02-23T06:34:20;13.53;;;11.00;;
12129;SDS011;6128;59.340;18.040;2024-02-23T06:36:47;16.10;;;12.60;;
12129;SDS011;6128;59.340;18.040;2024-02-23T06:39:14;13.73;;;10.83;;
12129;SDS011;6128;59.340;18.040;2024-02-23T06:41:43;17.00;;;13.20;;
12129;SDS011;6128;59.340;18.040;2024-02-23T06:44:10;13.60;;;10.23;;
12129;SDS011;6128;59.340;18.040;2024-02-23T06:46:39;10.20;;;9.20;;
12129;SDS011;6128;59.340;18.040;2024-02-23T06:49:06;10.53;;;9.43;;
12129;SDS011;6128;59.340;18.040;2024-02-23T06:51:33;10.73;;;9.63;;
12129;SDS011;6128;59.340;18.040;2024-02-23T06:54:00;12.13;;;10.77;;
12129;SDS011;6128;59.340;18.040;2024-02-23T06:56:28;13.60;;;10.73;;
12129;SDS011;6128;59.340;18.040;2024-02-23T06:58:59;11.07;;;9.67;;
12129;SDS011;6128;59.340;18.040;2024-02-23T07:01:26;13.30;;;10.07;;
12129;SDS011;6128;59.340;18.040;2024-02-23T07:03:54;12.10;;;10.77;;
12129;SDS011;6128;59.340;18.040;2024-02-23T07:06:21;11.20;;;9.77;;
12129;SDS011;6128;59.340;18.040;2024-02-23T07:08:48;11.57;;;9.63;;
12129;SDS011;6128;59.340;18.040;2024-02-23T07:11:15;11.13;;;9.63;;
12129;SDS011;6128;59.340;18.040;2024-02-23T07:13:43;12.70;;;11.33;;
12129;SDS011;6128;59.340;18.040;2024-02-23T07:16:10;13.67;;;11.80;;
12129;SDS011;6128;59.340;18.040;2024-02-23T07:18:38;11.43;;;10.30;;
12129;SDS011;6128;59.340;18.040;2024-02-23T07:21:08;13.30;;;11.53;;
12129;SDS011;6128;59.340;18.040;2024-02-23T07:23:35;12.23;;;9.93;;
12129;SDS011;6128;59.340;18.040;2024-02-23T07:26:03;9.83;;;8.47;;
12129;SDS011;6128;59.340;18.040;2024-02-23T07:28:30;11.13;;;9.93;;
12129;SDS011;6128;59.340;18.040;2024-02-23T07:30:58;12.33;;;9.47;;
12129;SDS011;6128;59.340;18.040;2024-02-23T07:33:25;10.00;;;9.07;;
12129;SDS011;6128;59.340;18.040;2024-02-23T07:35:52;9.47;;;8.47;;
12129;SDS011;6128;59.340;18.040;2024-02-23T07:38:20;9.93;;;8.73;;
12129;SDS011;6128;59.340;18.040;2024-02-23T07:40:47;7.90;;;6.87;;
12129;SDS011;6128;59.340;18.040;2024-02-23T07:43:15;7.60;;;6.20;;
12129;SDS011;6128;59.340;18.040;2024-02-23T07:45:42;7.47;;;6.77;;
12129;SDS011;6128;59.340;18.040;2024-02-23T07:48:09;7.10;;;5.80;;
12129;SDS011;6128;59.340;18.040;2024-02-23T07:50:36;6.90;;;5.80;;
12129;SDS011;6128;59.340;18.040;2024-02-23T07:53:03;6.57;;;5.97;;
12129;SDS011;6128;59.340;18.040;2024-02-23T07:55:31;7.60;;;6.70;;
12129;SDS011;6128;59.340;18.040;2024-02-23T07:57:59;6.00;;;5.40;;
12129;SDS011;6128;59.340;18.040;2024-02-23T08:00:26;6.60;;;6.00;;
12129;SDS011;6128;59.340;18.040;2024-02-23T08:02:53;7.23;;;6.63;;
12129;SDS011;6128;59.340;18.040;2024-02-23T08:05:22;7.33;;;5.90;;
12129;SDS011;6128;59.340;18.040;2024-02-23T08:07:49;6.87;;;5.70;;
12129;SDS011;6128;59.340;18.040;2024-02-23T08:10:16;6.57;;;5.97;;
12129;SDS011;6128;59.340;18.040;2024-02-23T08:12:45;7.57;;;6.80;;
12129;SDS011;6128;59.340;18.040;2024-02-23T08:15:12;7.67;;;6.90;;
12129;SDS011;6128;59.340;18.040;2024-02-23T08:17:39;9.63;;;8.43;;
12129;SDS011;6128;59.340;18.040;2024-02-23T08:20:06;11.10;;;9.13;;
12129;SDS011;6128;59.340;18.040;2024-02-23T08:22:33;9.20;;;8.07;;
12129;SDS011;6128;59.340;18.040;2024-02-23T08:25:03;9.90;;;7.73;;
12129;SDS011;6128;59.340;18.040;2024-02-23T08:27:30;9.33;;;8.23;;
12129;SDS011;6128;59.340;18.040;2024-02-23T08:30:02;9.03;;;8.10;;
12129;SDS011;6128;59.340;18.040;2024-02-23T08:32:30;11.17;;;8.67;;
12129;SDS011;6128;59.340;18.040;2024-02-23T08:34:57;13.60;;;10.47;;
12129;SDS011;6128;59.340;18.040;2024-02-23T08:37:25;10.53;;;8.73;;
12129;SDS011;6128;59.340;18.040;2024-02-23T08:39:52;13.03;;;10.00;;
12129;SDS011;6128;59.340;18.040;2024-02-23T08:42:19;8.77;;;7.97;;
12129;SDS011;6128;59.340;18.040;2024-02-23T08:44:46;8.90;;;6.87;;
12129;SDS011;6128;59.340;18.040;2024-02-23T08:47:15;9.60;;;7.73;;
12129;SDS011;6128;59.340;18.040;2024-02-23T08:49:42;7.43;;;6.67;;
12129;SDS011;6128;59.340;18.040;2024-02-23T08:52:09;6.27;;;5.67;;
12129;SDS011;6128;59.340;18.040;2024-02-23T08:54:36;8.13;;;7.33;;
12129;SDS011;6128;59.340;18.040;2024-02-23T08:57:04;8.77;;;6.93;;
12129;SDS011;6128;59.340;18.040;2024-02-23T08:59:31;6.27;;;5.67;;
12129;SDS011;6128;59.340;18.040;2024-02-23T09:01:58;5.90;;;5.27;;
12129;SDS011;6128;59.340;18.040;2024-02-23T09:04:27;6.33;;;5.37;;
12129;SDS011;6128;59.340;18.040;2024-02-23T09:06:54;6.70;;;5.70;;
12129;SDS011;6128;59.340;18.040;2024-02-23T09:09:21;5.90;;;5.30;;
12129;SDS011;6128;59.340;18.040;2024-02-23T09:11:48;7.17;;;6.47;;
12129;SDS011;6128;59.340;18.040;2024-02-23T09:14:16;7.37;;;6.77;;
12129;SDS011;6128;59.340;18.040;2024-02-23T09:16:43;7.80;;;6.50;;
12129;SDS011;6128;59.340;18.040;2024-02-23T09:19:11;7.77;;;7.07;;
12129;SDS011;6128;59.340;18.040;2024-02-23T09:21:39;8.07;;;7.00;;
12129;SDS011;6128;59.340;18.040;2024-02-23T09:24:06;9.53;;;6.93;;
12129;SDS011;6128;59.340;18.040;2024-02-23T09:26:34;7.83;;;7.03;;
12129;SDS011;6128;59.340;18.040;2024-02-23T09:29:01;7.43;;;6.67;;
12129;SDS011;6128;59.340;18.040;2024-02-23T09:31:28;7.53;;;6.73;;
12129;SDS011;6128;59.340;18.040;2024-02-23T09:33:56;7.37;;;6.67;;
12129;SDS011;6128;59.340;18.040;2024-02-23T09:36:24;7.60;;;6.73;;
12129;SDS011;6128;59.340;18.040;2024-02-23T09:38:52;7.93;;;7.13;;
12129;SDS011;6128;59.340;18.040;2024-02-23T09:41:21;9.30;;;6.90;;
12129;SDS011;6128;59.340;18.040;2024-02-23T09:43:48;8.47;;;7.63;;
12129;SDS011;6128;59.340;18.040;2024-02-23T09:46:16;7.83;;;7.03;;
12129;SDS011;6128;59.340;18.040;2024-02-23T09:48:43;7.20;;;6.50;;
12129;SDS011;6128;59.340;18.040;2024-02-23T09:51:11;7.90;;;7.10;;
12129;SDS011;6128;59.340;18.040;2024-02-23T09:53:39;8.03;;;7.00;;
12129;SDS011;6128;59.340;18.040;2024-02-23T09:56:09;6.67;;;6.07;;
12129;SDS011;6128;59.340;18.040;2024-02-23T09:58:37;7.20;;;6.23;;
12129;SDS011;6128;59.340;18.040;2024-02-23T10:01:05;6.07;;;5.57;;
12129;SDS011;6128;59.340;18.040;2024-02-23T10:03:32;6.33;;;5.73;;
12129;SDS011;6128;59.340;18.040;2024-02-23T10:05:59;5.77;;;5.20;;
12129;SDS011;6128;59.340;18.040;2024-02-23T10:08:27;5.93;;;5.37;;
12129;SDS011;6128;59.340;18.040;2024-02-23T10:10:54;4.93;;;4.07;;
12129;SDS011;6128;59.340;18.040;2024-02-23T10:13:23;4.53;;;3.97;;
12129;SDS011;6128;59.340;18.040;2024-02-23T10:15:50;5.20;;;4.70;;
12129;SDS011;6128;59.340;18.040;2024-02-23T10:18:18;3.77;;;3.47;;
12129;SDS011;6128;59.340;18.040;2024-02-23T10:20:46;5.87;;;3.47;;
12129;SDS011;6128;59.340;18.040;2024-02-23T10:23:15;3.20;;;2.80;;
12129;SDS011;6128;59.340;18.040;2024-02-23T10:25:42;3.33;;;2.93;;
12129;SDS011;6128;59.340;18.040;2024-02-23T10:28:09;3.17;;;2.50;;
12129;SDS011;6128;59.340;18.040;2024-02-23T10:30:38;4.17;;;2.40;;
12129;SDS011;6128;59.340;18.040;2024-02-23T10:33:06;2.47;;;1.90;;
12129;SDS011;6128;59.340;18.040;2024-02-23T10:35:33;2.40;;;1.87;;
12129;SDS011;6128;59.340;18.040;2024-02-23T10:38:06;4.27;;;1.90;;
12129;SDS011;6128;59.340;18.040;2024-02-23T10:40:35;4.00;;;1.90;;
12129;SDS011;6128;59.340;18.040;2024-02-23T10:43:07;2.73;;;1.70;;
12129;SDS011;6128;59.340;18.040;2024-02-23T10:45:39;2.53;;;1.40;;
12129;SDS011;6128;59.340;18.040;2024-02-23T10:48:07;1.73;;;1.37;;
12129;SDS011;6128;59.340;18.040;2024-02-23T10:50:36;1.73;;;1.30;;
12129;SDS011;6128;59.340;18.040;2024-02-23T10:53:04;2.20;;;1.33;;
12129;SDS011;6128;59.340;18.040;2024-02-23T10:55:33;2.40;;;1.30;;
12129;SDS011;6128;59.340;18.040;2024-02-23T10:58:03;1.67;;;1.10;;
12129;SDS011;6128;59.340;18.040;2024-02-23T11:00:34;1.70;;;1.00;;
12129;SDS011;6128;59.340;18.040;2024-02-23T11:03:02;2.33;;;1.20;;
12129;SDS011;6128;59.340;18.040;2024-02-23T11:05:31;1.77;;;0.70;;
12129;SDS011;6128;59.340;18.040;2024-02-23T11:07:59;3.30;;;1.20;;
12129;SDS011;6128;59.340;18.040;2024-02-23T11:10:26;1.57;;;0.80;;
12129;SDS011;6128;59.340;18.040;2024-02-23T11:12:59;1.63;;;0.60;;
12129;SDS011;6128;59.340;18.040;2024-02-23T11:15:27;1.23;;;0.40;;
12129;SDS011;6128;59.340;18.040;2024-02-23T11:17:55;1.17;;;0.70;;
12129;SDS011;6128;59.340;18.040;2024-02-23T11:20:24;1.20;;;0.73;;
12129;SDS011;6128;59.340;18.040;2024-02-23T11:23:00;0.80;;;0.30;;
12129;SDS011;6128;59.340;18.040;2024-02-23T11:25:27;0.83;;;0.60;;
12129;SDS011;6128;59.340;18.040;2024-02-23T11:28:02;1.60;;;0.70;;
12129;SDS011;6128;59.340;18.040;2024-02-23T11:30:29;0.67;;;0.30;;
12129;SDS011;6128;59.340;18.040;2024-02-23T11:32:59;1.50;;;0.50;;
12129;SDS011;6128;59.340;18.040;2024-02-23T11:35:28;1.30;;;0.87;;
12129;SDS011;6128;59.340;18.040;2024-02-23T11:37:55;1.53;;;0.50;;
12129;SDS011;6128;59.340;18.040;2024-02-23T11:40:25;2.00;;;0.40;;
12129;SDS011;6128;59.340;18.040;2024-02-23T11:42:52;2.43;;;0.73;;
12129;SDS011;6128;59.340;18.040;2024-02-23T11:45:21;0.70;;;0.20;;
12129;SDS011;6128;59.340;18.040;2024-02-23T11:47:49;1.40;;;0.50;;
12129;SDS011;6128;59.340;18.040;2024-02-23T11:50:16;1.00;;;0.13;;
12129;SDS011;6128;59.340;18.040;2024-02-23T11:52:47;1.23;;;0.40;;
12129;SDS011;6128;59.340;18.040;2024-02-23T11:55:17;1.47;;;0.47;;
12129;SDS011;6128;59.340;18.040;2024-02-23T11:57:51;0.67;;;0.30;;
12129;SDS011;6128;59.340;18.040;2024-02-23T12:00:18;1.67;;;0.47;;
12129;SDS011;6128;59.340;18.040;2024-02-23T12:02:46;0.67;;;0.30;;
12129;SDS011;6128;59.340;18.040;2024-02-23T12:05:15;4.10;;;0.80;;
12129;SDS011;6128;59.340;18.040;2024-02-23T12:07:42;1.53;;;0.33;;
12129;SDS011;6128;59.340;18.040;2024-02-23T12:10:13;1.10;;;0.47;;
12129;SDS011;6128;59.340;18.040;2024-02-23T12:12:40;0.47;;;0.27;;
12129;SDS011;6128;59.340;18.040;2024-02-23T12:15:08;3.20;;;1.00;;
12129;SDS011;6128;59.340;18.040;2024-02-23T12:17:35;2.20;;;0.40;;
12129;SDS011;6128;59.340;18.040;2024-02-23T12:20:03;1.40;;;0.50;;
12129;SDS011;6128;59.340;18.040;2024-02-23T12:22:33;0.90;;;0.43;;
12129;SDS011;6128;59.340;18.040;2024-02-23T12:25:00;1.27;;;0.50;;
12129;SDS011;6128;59.340;18.040;2024-02-23T12:27:30;3.17;;;0.80;;
12129;SDS011;6128;59.340;18.040;2024-02-23T12:29:57;2.27;;;0.60;;
12129;SDS011;6128;59.340;18.040;2024-02-23T12:32:25;2.10;;;0.70;;
12129;SDS011;6128;59.340;18.040;2024-02-23T12:34:52;3.37;;;0.40;;
12129;SDS011;6128;59.340;18.040;2024-02-23T12:37:19;1.23;;;0.50;;
12129;SDS011;6128;59.340;18.040;2024-02-23T12:39:47;1.90;;;0.50;;
12129;SDS011;6128;59.340;18.040;2024-02-23T12:42:14;2.00;;;0.50;;
12129;SDS011;6128;59.340;18.040;2024-02-23T12:44:44;2.03;;;0.40;;
12129;SDS011;6128;59.340;18.040;2024-02-23T12:47:12;3.70;;;0.67;;
12129;SDS011;6128;59.340;18.040;2024-02-23T12:49:39;2.40;;;0.43;;
12129;SDS011;6128;59.340;18.040;2024-02-23T12:52:06;2.37;;;0.70;;
12129;SDS011;6128;59.340;18.040;2024-02-23T12:54:34;1.47;;;0.50;;
12129;SDS011;6128;59.340;18.040;2024-02-23T12:57:01;4.23;;;0.83;;
12129;SDS011;6128;59.340;18.040;2024-02-23T12:59:28;4.70;;;0.60;;
12129;SDS011;6128;59.340;18.040;2024-02-23T13:01:57;0.67;;;0.50;;
12129;SDS011;6128;59.340;18.040;2024-02-23T13:04:24;1.60;;;0.67;;
12129;SDS011;6128;59.340;18.040;2024-02-23T13:06:51;2.90;;;0.97;;
12129;SDS011;6128;59.340;18.040;2024-02-23T13:09:19;1.77;;;0.57;;
12129;SDS011;6128;59.340;18.040;2024-02-23T13:11:46;2.87;;;0.50;;
12129;SDS011;6128;59.340;18.040;2024-02-23T13:14:13;6.53;;;0.90;;
12129;SDS011;6128;59.340;18.040;2024-02-23T13:16:41;1.90;;;0.47;;
12129;SDS011;6128;59.340;18.040;2024-02-23T13:19:09;3.07;;;0.63;;
12129;SDS011;6128;59.340;18.040;2024-02-23T13:21:36;6.00;;;1.13;;
12129;SDS011;6128;59.340;18.040;2024-02-23T13:24:04;2.63;;;1.40;;
12129;SDS011;6128;59.340;18.040;2024-02-23T13:26:36;3.40;;;0.63;;
12129;SDS011;6128;59.340;18.040;2024-02-23T13:29:07;4.37;;;1.17;;
12129;SDS011;6128;59.340;18.040;2024-02-23T13:31:34;2.63;;;0.53;;
12129;SDS011;6128;59.340;18.040;2024-02-23T13:34:03;3.27;;;0.87;;
12129;SDS011;6128;59.340;18.040;2024-02-23T13:36:31;3.63;;;0.80;;
12129;SDS011;6128;59.340;18.040;2024-02-23T13:38:59;3.30;;;0.80;;
12129;SDS011;6128;59.340;18.040;2024-02-23T13:41:26;4.47;;;0.90;;
12129;SDS011;6128;59.340;18.040;2024-02-23T13:43:53;5.37;;;0.80;;
12129;SDS011;6128;59.340;18.040;2024-02-23T13:46:20;3.03;;;0.63;;
12129;SDS011;6128;59.340;18.040;2024-02-23T13:48:48;3.50;;;0.77;;
12129;SDS011;6128;59.340;18.040;2024-02-23T13:51:28;2.87;;;0.63;;
12129;SDS011;6128;59.340;18.040;2024-02-23T13:53:56;3.67;;;0.80;;
12129;SDS011;6128;59.340;18.040;2024-02-23T13:56:23;3.50;;;1.00;;
12129;SDS011;6128;59.340;18.040;2024-02-23T13:58:51;4.57;;;1.07;;
12129;SDS011;6128;59.340;18.040;2024-02-23T14:01:18;4.10;;;0.70;;
12129;SDS011;6128;59.340;18.040;2024-02-23T14:03:47;5.90;;;0.77;;
12129;SDS011;6128;59.340;18.040;2024-02-23T14:06:14;4.40;;;0.77;;
12129;SDS011;6128;59.340;18.040;2024-02-23T14:08:41;2.27;;;0.57;;
12129;SDS011;6128;59.340;18.040;2024-02-23T14:11:13;2.90;;;0.60;;
12129;SDS011;6128;59.340;18.040;2024-02-23T14:13:40;3.33;;;0.70;;
12129;SDS011;6128;59.340;18.040;2024-02-23T14:16:09;3.27;;;0.77;;
12129;SDS011;6128;59.340;18.040;2024-02-23T14:18:36;3.00;;;0.80;;
12129;SDS011;6128;59.340;18.040;2024-02-23T14:21:07;3.50;;;0.70;;
12129;SDS011;6128;59.340;18.040;2024-02-23T14:23:35;2.10;;;0.90;;
12129;SDS011;6128;59.340;18.040;2024-02-23T14:26:02;3.87;;;0.83;;
12129;SDS011;6128;59.340;18.040;2024-02-23T14:28:31;2.10;;;0.60;;
12129;SDS011;6128;59.340;18.040;2024-02-23T14:30:58;4.83;;;0.70;;
12129;SDS011;6128;59.340;18.040;2024-02-23T14:33:25;3.77;;;0.90;;
12129;SDS011;6128;59.340;18.040;2024-02-23T14:35:53;2.37;;;1.07;;
12129;SDS011;6128;59.340;18.040;2024-02-23T14:38:20;5.50;;;1.07;;
12129;SDS011;6128;59.340;18.040;2024-02-23T14:40:48;6.50;;;0.90;;
12129;SDS011;6128;59.340;18.040;2024-02-23T14:43:15;3.03;;;0.73;;